Time;durP1;ratioP1;P1;durP2;ratioP2;P2;SDS_P1;SDS_P2;PMS_P1;PMS_P2;Temp;Humidity;BMP_temperature;BMP_pressure;BME280_temperature;BME280_humidity;BME280_pressure;Samples;Min_cycle;Max_cycle;Signal;HPM_P1;HPM_P2
2021/12/26 00:00:21;;;;;;;11.77;8.00;;;;;;;5.21;76.90;99808.06;4965926;28;20304;-65
2021/12/26 00:02:49;;;;;;;11.27;7.60;;;;;;;5.29;76.58;99800.38;4966450;28;20746;-66
2021/12/26 00:05:18;;;;;;;12.57;7.60;;;;;;;5.20;77.04;99793.25;4974907;28;20276;-66
2021/12/26 00:07:46;;;;;;;11.87;7.33;;;;;;;5.31;76.64;99798.44;4973652;28;20245;-66
2021/12/26 00:10:16;;;;;;;11.83;7.20;;;;;;;5.14;77.23;99799.03;4973658;28;20301;-66
2021/12/26 00:12:44;;;;;;;12.73;7.43;;;;;;;5.14;77.00;99797.25;4972396;28;20234;-66
2021/12/26 00:15:12;;;;;;;14.07;8.07;;;;;;;5.20;76.90;99801.16;4970461;28;20695;-66
2021/12/26 00:17:41;;;;;;;11.03;7.40;;;;;;;5.06;77.62;99798.84;4973437;28;20304;-66
2021/12/26 00:20:11;;;;;;;13.03;8.17;;;;;;;5.01;77.65;99799.25;4973756;28;20807;-66
2021/12/26 00:22:40;;;;;;;12.67;8.20;;;;;;;5.20;77.10;99796.72;4965898;28;20216;-66
2021/12/26 00:25:11;;;;;;;12.93;8.17;;;;;;;5.18;76.92;99803.09;4974129;28;20335;-65
2021/12/26 00:27:39;;;;;;;12.37;7.70;;;;;;;4.83;77.91;99801.63;4973133;28;20459;-65
2021/12/26 00:30:10;;;;;;;13.13;7.50;;;;;;;4.73;79.59;99798.09;4975896;28;20226;-66
2021/12/26 00:32:41;;;;;;;13.13;7.93;;;;;;;4.80;77.73;99798.41;4971434;28;20675;-66
2021/12/26 00:35:11;;;;;;;13.10;7.83;;;;;;;5.08;77.77;99802.19;4974051;28;20240;-66
2021/12/26 00:37:39;;;;;;;13.33;8.50;;;;;;;4.95;77.45;99796.28;4970743;28;20295;-65
2021/12/26 00:40:09;;;;;;;13.13;7.20;;;;;;;5.24;76.72;99792.06;4969056;28;20608;-65
2021/12/26 00:42:37;;;;;;;11.40;7.57;;;;;;;5.20;76.77;99793.25;4971760;28;20203;-65
2021/12/26 00:45:06;;;;;;;11.00;7.50;;;;;;;5.15;76.10;99783.16;4970046;28;20218;-65
2021/12/26 00:47:35;;;;;;;11.30;7.27;;;;;;;5.14;76.33;99778.84;4975653;28;20667;-66
2021/12/26 00:50:07;;;;;;;11.50;7.47;;;;;;;4.91;77.02;99786.06;4975368;28;20268;-65
2021/12/26 00:52:35;;;;;;;11.43;7.27;;;;;;;5.06;76.67;99786.56;4967177;28;20676;-67
2021/12/26 00:55:05;;;;;;;12.73;7.17;;;;;;;5.13;76.09;99778.97;4966207;28;20257;-65
2021/12/26 00:57:32;;;;;;;11.97;7.77;;;;;;;5.06;76.30;99778.69;4973184;28;20220;-65
2021/12/26 01:00:00;;;;;;;12.47;7.37;;;;;;;5.17;75.95;99781.22;4969824;28;20206;-65
2021/12/26 01:02:28;;;;;;;13.30;7.63;;;;;;;5.14;76.59;99776.22;4972087;28;20228;-65
2021/12/26 01:04:56;;;;;;;12.40;7.40;;;;;;;4.87;77.19;99787.25;4969886;28;20211;-65
2021/12/26 01:07:35;;;;;;;11.83;7.80;;;;;;;4.97;76.93;99775.97;4974428;28;20300;-66
2021/12/26 01:10:05;;;;;;;13.33;7.97;;;;;;;4.93;76.03;99778.84;4966634;28;20211;-65
2021/12/26 01:12:33;;;;;;;12.37;7.60;;;;;;;5.02;75.99;99777.25;4976804;28;20215;-66
2021/12/26 01:15:05;;;;;;;13.13;7.40;;;;;;;5.03;75.89;99778.91;4969705;28;20618;-64
2021/12/26 01:17:34;;;;;;;14.17;7.83;;;;;;;5.17;75.34;99781.22;4969470;28;20676;-65
2021/12/26 01:20:04;;;;;;;16.07;7.30;;;;;;;5.09;75.93;99785.47;4970833;28;20246;-66
2021/12/26 01:22:33;;;;;;;12.03;7.57;;;;;;;5.03;76.29;99788.59;4969644;28;20305;-66
2021/12/26 01:25:01;;;;;;;12.90;7.50;;;;;;;5.10;76.07;99785.31;4971600;28;20316;-65
2021/12/26 01:27:29;;;;;;;12.60;7.47;;;;;;;5.10;76.18;99787.94;4970443;28;20246;-66
2021/12/26 01:29:57;;;;;;;11.87;7.33;;;;;;;4.78;75.70;99790.66;4967401;28;20233;-65
2021/12/26 01:32:24;;;;;;;12.23;7.57;;;;;;;5.05;75.93;99794.56;4963099;28;20207;-65
2021/12/26 01:34:52;;;;;;;13.63;8.10;;;;;;;4.91;76.63;99795.72;4974997;28;20222;-65
2021/12/26 01:37:20;;;;;;;13.03;7.27;;;;;;;4.93;76.42;99792.00;4970427;28;20686;-65
2021/12/26 01:39:49;;;;;;;13.03;7.70;;;;;;;5.12;75.76;99798.34;4965657;28;20629;-66
2021/12/26 01:42:17;;;;;;;12.80;7.47;;;;;;;5.08;76.05;99791.69;4967667;28;20221;-66
2021/12/26 01:44:45;;;;;;;13.27;7.70;;;;;;;5.06;76.22;99793.59;4974479;28;20221;-65
2021/12/26 01:47:13;;;;;;;11.67;7.00;;;;;;;5.18;75.45;99793.41;4967342;28;20211;-65
2021/12/26 01:49:40;;;;;;;12.43;7.37;;;;;;;5.21;75.61;99792.31;4971171;28;20305;-66
2021/12/26 01:52:09;;;;;;;10.87;6.60;;;;;;;5.12;75.68;99790.44;4973005;28;20214;-65
2021/12/26 01:54:44;;;;;;;13.00;7.83;;;;;;;5.06;75.56;99788.34;4972634;28;20838;-64
2021/12/26 01:57:19;;;;;;;12.00;7.17;;;;;;;5.00;75.63;99788.88;4976691;28;20296;-66
2021/12/26 01:59:48;;;;;;;15.67;7.60;;;;;;;5.14;75.66;99791.16;4977938;28;20284;-65
2021/12/26 02:02:15;;;;;;;12.90;6.57;;;;;;;5.15;75.36;99798.09;4968977;28;20268;-65
2021/12/26 02:04:43;;;;;;;12.50;7.30;;;;;;;5.04;75.80;99795.53;4969966;28;20304;-65
2021/12/26 02:07:13;;;;;;;11.30;6.67;;;;;;;4.93;76.01;99799.03;4968030;28;20342;-66
2021/12/26 02:09:41;;;;;;;11.30;7.00;;;;;;;4.88;76.25;99801.22;4978031;28;20318;-65
2021/12/26 02:12:10;;;;;;;12.00;7.17;;;;;;;4.97;75.95;99789.13;4969692;28;20581;-65
2021/12/26 02:14:39;;;;;;;14.37;7.83;;;;;;;5.13;75.17;99781.59;4965246;28;20242;-66
2021/12/26 02:17:07;;;;;;;13.77;7.93;;;;;;;5.03;75.23;99778.91;4967380;28;20213;-67
2021/12/26 02:19:34;;;;;;;12.80;7.37;;;;;;;4.88;76.15;99775.81;4974216;28;20306;-66
2021/12/26 02:22:10;;;;;;;12.67;8.07;;;;;;;5.12;75.50;99782.56;4971137;28;20206;-66
2021/12/26 02:25:10;;;;;;;13.73;8.03;;;;;;;5.10;75.37;99779.25;4970416;28;20290;-66
2021/12/26 02:27:42;;;;;;;12.63;6.83;;;;;;;5.08;75.56;99782.00;4964051;28;20226;-66
2021/12/26 02:30:16;;;;;;;12.53;7.27;;;;;;;5.09;75.43;99782.84;4970727;28;20263;-66
2021/12/26 02:32:48;;;;;;;11.90;7.40;;;;;;;5.09;75.41;99783.69;4968254;28;20215;-65
2021/12/26 02:35:17;;;;;;;11.90;7.37;;;;;;;5.07;75.93;99774.25;4969593;28;20324;-67
2021/12/26 02:37:46;;;;;;;13.43;7.37;;;;;;;5.06;75.79;99788.34;4970084;28;20214;-67
2021/12/26 02:40:17;;;;;;;14.33;8.13;;;;;;;5.01;76.07;99785.28;4979730;28;20568;-66
2021/12/26 02:42:45;;;;;;;12.50;7.40;;;;;;;4.84;75.66;99789.31;4963302;28;20210;-66
2021/12/26 02:45:13;;;;;;;14.17;8.37;;;;;;;4.98;75.47;99785.53;4965647;28;20241;-66
2021/12/26 02:47:44;;;;;;;12.47;7.43;;;;;;;5.02;75.24;99781.69;4965128;28;20386;-68
2021/12/26 02:50:14;;;;;;;12.90;7.80;;;;;;;5.11;75.60;99786.16;4969233;28;20578;-66
2021/12/26 02:52:43;;;;;;;11.13;6.17;;;;;;;4.96;76.06;99771.69;4967747;28;20207;-67
2021/12/26 02:55:15;;;;;;;11.07;6.83;;;;;;;4.95;76.61;99775.28;4971733;28;20245;-66
2021/12/26 02:57:47;;;;;;;12.97;7.73;;;;;;;5.08;76.02;99768.88;4969433;28;20329;-66
2021/12/26 03:00:17;;;;;;;14.30;8.43;;;;;;;4.95;75.71;99775.28;4967573;28;20309;-66
2021/12/26 03:02:46;;;;;;;13.93;8.03;;;;;;;4.97;75.12;99775.97;4969765;28;20297;-65
2021/12/26 03:05:16;;;;;;;13.23;7.97;;;;;;;5.00;74.92;99773.13;4963528;28;20662;-66
2021/12/26 03:07:44;;;;;;;16.43;8.17;;;;;;;5.08;74.82;99775.91;4966371;28;20228;-67
2021/12/26 03:10:21;;;;;;;12.60;7.87;;;;;;;5.00;74.86;99773.94;4966949;28;20518;-66
2021/12/26 03:12:53;;;;;;;12.73;7.37;;;;;;;5.15;74.67;99766.53;4969097;28;20213;-66
2021/12/26 03:15:22;;;;;;;16.00;8.47;;;;;;;4.96;75.58;99774.31;4968419;28;20414;-65
2021/12/26 03:17:51;;;;;;;12.40;7.73;;;;;;;5.11;74.84;99773.84;4965223;28;20232;-65
2021/12/26 03:20:21;;;;;;;15.20;7.73;;;;;;;4.92;75.74;99774.56;4971454;28;20261;-65
2021/12/26 03:22:49;;;;;;;13.20;7.33;;;;;;;4.87;76.08;99768.88;4969721;28;20221;-65
2021/12/26 03:25:19;;;;;;;18.87;9.20;;;;;;;4.91;75.46;99767.66;4968130;28;20314;-66
2021/12/26 03:27:49;;;;;;;15.07;7.97;;;;;;;5.01;75.42;99769.53;4966433;28;20586;-66
2021/12/26 03:30:19;;;;;;;15.37;8.33;;;;;;;5.09;74.66;99773.16;4963811;28;20252;-67
2021/12/26 03:32:52;;;;;;;12.97;8.07;;;;;;;5.09;74.34;99781.06;4963777;28;20588;-66
2021/12/26 03:35:21;;;;;;;13.73;8.10;;;;;;;5.03;74.99;99773.66;4970874;28;20586;-65
2021/12/26 03:37:50;;;;;;;12.70;7.73;;;;;;;5.07;74.92;99774.25;4970181;28;20211;-65
2021/12/26 03:40:19;;;;;;;14.00;7.77;;;;;;;4.89;75.66;99781.88;4971466;28;20234;-66
2021/12/26 03:42:47;;;;;;;12.47;7.53;;;;;;;4.96;75.40;99772.53;4966615;28;20249;-65
2021/12/26 03:45:35;;;;;;;14.30;8.03;;;;;;;4.66;75.11;99764.59;4963393;28;20222;-66
2021/12/26 03:48:03;;;;;;;13.50;8.13;;;;;;;4.89;75.31;99766.97;4965411;28;20226;-66
2021/12/26 03:50:32;;;;;;;12.47;7.63;;;;;;;4.76;75.92;99771.56;4977537;28;20239;-65
2021/12/26 03:53:02;;;;;;;12.67;7.83;;;;;;;4.91;75.67;99775.56;4967456;28;20708;-66
2021/12/26 03:55:32;;;;;;;13.20;7.50;;;;;;;4.67;76.33;99779.38;4974223;28;20566;-66
2021/12/26 03:58:00;;;;;;;14.83;8.63;;;;;;;4.97;75.62;99781.25;4964300;28;20581;-65
2021/12/26 04:00:29;;;;;;;16.00;8.93;;;;;;;4.97;75.29;99779.44;4965126;28;20227;-65
2021/12/26 04:02:57;;;;;;;17.43;8.33;;;;;;;4.97;75.35;99784.69;4972782;28;20727;-66
2021/12/26 04:05:25;;;;;;;17.30;8.30;;;;;;;5.03;75.53;99778.09;4967595;28;20213;-65
2021/12/26 04:07:53;;;;;;;13.50;7.87;;;;;;;5.13;74.79;99774.56;4967442;28;20714;-66
2021/12/26 04:10:23;;;;;;;15.50;8.23;;;;;;;4.98;74.98;99781.13;4969247;28;20301;-66
2021/12/26 04:12:54;;;;;;;14.63;7.93;;;;;;;4.92;75.49;99776.38;4968816;28;20300;-65
2021/12/26 04:15:24;;;;;;;14.20;7.97;;;;;;;5.11;74.80;99780.91;4971477;28;20234;-65
2021/12/26 04:17:54;;;;;;;15.10;9.23;;;;;;;4.85;75.59;99777.84;4968238;28;20245;-65
2021/12/26 04:20:23;;;;;;;15.13;8.73;;;;;;;4.70;76.67;99772.09;4968165;28;20301;-65
2021/12/26 04:22:50;;;;;;;14.77;7.87;;;;;;;4.84;76.02;99779.63;4965922;28;20297;-66
2021/12/26 04:25:20;;;;;;;15.30;8.80;;;;;;;4.80;76.23;99766.91;4967808;28;20688;-65
2021/12/26 04:27:47;;;;;;;15.23;8.60;;;;;;;4.85;75.57;99765.53;4966453;28;20360;-66
2021/12/26 04:30:19;;;;;;;14.77;8.00;;;;;;;4.76;75.78;99765.47;4965360;28;20302;-65
2021/12/26 04:32:47;;;;;;;16.43;8.23;;;;;;;4.81;75.78;99763.31;4965111;28;20743;-66
2021/12/26 04:35:16;;;;;;;12.90;7.43;;;;;;;4.91;75.25;99772.09;4965372;28;20234;-65
2021/12/26 04:37:44;;;;;;;15.17;9.07;;;;;;;4.84;75.12;99758.63;4965697;28;20210;-65
2021/12/26 04:40:14;;;;;;;16.37;8.90;;;;;;;4.65;75.67;99762.94;4963045;28;20203;-65
2021/12/26 04:42:44;;;;;;;14.00;8.33;;;;;;;4.85;75.31;99762.06;4965932;28;20227;-64
2021/12/26 04:45:14;;;;;;;13.27;8.00;;;;;;;4.77;75.07;99765.34;4966523;28;20562;-64
2021/12/26 04:47:45;;;;;;;13.93;8.30;;;;;;;4.88;74.75;99764.47;4962472;28;20232;-64
2021/12/26 04:50:20;;;;;;;15.87;8.50;;;;;;;5.02;74.18;99766.75;4969834;28;23106;-65
2021/12/26 04:52:49;;;;;;;12.77;7.37;;;;;;;4.88;74.73;99765.28;4973500;28;20234;-65
2021/12/26 04:55:21;;;;;;;17.30;8.77;;;;;;;4.95;74.96;99767.41;4968393;28;20232;-64
2021/12/26 04:57:49;;;;;;;15.87;8.07;;;;;;;4.77;74.78;99761.88;4961410;28;20218;-64
2021/12/26 05:00:19;;;;;;;16.03;8.83;;;;;;;4.79;75.69;99779.19;4966524;28;20214;-64
2021/12/26 05:02:50;;;;;;;13.77;7.97;;;;;;;4.79;75.49;99778.34;4964393;28;20305;-65
2021/12/26 05:05:17;;;;;;;16.57;8.90;;;;;;;4.82;75.30;99771.06;4974189;28;20208;-64
2021/12/26 05:07:46;;;;;;;14.50;8.73;;;;;;;4.67;75.87;99777.56;4969750;28;20222;-64
2021/12/26 05:10:16;;;;;;;16.67;8.90;;;;;;;4.75;76.06;99783.03;4961551;28;20301;-65
2021/12/26 05:12:44;;;;;;;14.03;8.27;;;;;;;4.87;75.49;99774.13;4970924;28;20323;-64
2021/12/26 05:15:16;;;;;;;15.73;9.00;;;;;;;4.92;74.77;99779.81;4972956;28;20234;-65
2021/12/26 05:17:45;;;;;;;15.93;8.50;;;;;;;4.87;75.28;99779.38;4968482;28;20213;-64
2021/12/26 05:20:15;;;;;;;14.37;8.37;;;;;;;4.89;74.76;99787.97;4964690;28;20219;-64
2021/12/26 05:22:42;;;;;;;14.47;8.53;;;;;;;4.99;75.23;99768.81;4962853;28;20660;-65
2021/12/26 05:25:10;;;;;;;15.93;9.13;;;;;;;4.95;75.07;99777.91;4962930;28;20238;-65
2021/12/26 05:27:39;;;;;;;17.40;9.57;;;;;;;4.73;74.81;99771.84;4965056;28;20332;-65
2021/12/26 05:30:11;;;;;;;16.07;7.57;;;;;;;4.75;75.11;99767.25;4963977;28;20739;-66
2021/12/26 05:32:39;;;;;;;16.90;8.87;;;;;;;4.70;75.05;99777.34;4964056;28;20679;-66
2021/12/26 05:35:09;;;;;;;15.63;8.60;;;;;;;4.90;74.49;99768.63;4963333;28;20247;-65
2021/12/26 05:37:38;;;;;;;15.07;9.30;;;;;;;5.02;73.82;99769.38;4962943;28;20435;-66
2021/12/26 05:40:08;;;;;;;15.17;8.27;;;;;;;4.93;73.70;99778.03;4968317;28;20304;-65
2021/12/26 05:42:37;;;;;;;16.00;8.93;;;;;;;5.00;74.16;99770.47;4964685;28;20222;-66
2021/12/26 05:45:07;;;;;;;15.27;9.37;;;;;;;4.84;74.34;99777.00;4969987;28;20212;-66
2021/12/26 05:47:35;;;;;;;16.53;8.43;;;;;;;4.91;73.96;99767.66;4974437;28;20276;-65
2021/12/26 05:50:05;;;;;;;17.20;9.40;;;;;;;4.97;74.59;99770.72;4974499;28;20277;-65
2021/12/26 05:52:33;;;;;;;13.27;8.17;;;;;;;4.97;74.30;99774.19;4976036;28;20308;-65
2021/12/26 05:55:02;;;;;;;15.63;8.47;;;;;;;4.79;74.85;99768.69;4968202;28;20309;-65
2021/12/26 05:57:30;;;;;;;14.77;8.80;;;;;;;4.96;75.03;99766.44;4973790;28;20309;-65
2021/12/26 05:59:57;;;;;;;17.40;9.27;;;;;;;5.03;73.95;99764.94;4965672;28;20264;-66
2021/12/26 06:02:25;;;;;;;17.10;9.27;;;;;;;4.69;74.63;99765.16;4964573;28;20212;-66
2021/12/26 06:04:53;;;;;;;16.77;9.30;;;;;;;4.92;74.02;99766.69;4962913;28;20297;-65
2021/12/26 06:07:21;;;;;;;15.37;9.33;;;;;;;4.89;74.21;99771.38;4962037;28;20403;-64
2021/12/26 06:09:48;;;;;;;14.90;8.63;;;;;;;4.80;73.79;99766.91;4963713;28;20643;-64
2021/12/26 06:12:18;;;;;;;15.47;8.57;;;;;;;4.95;73.96;99759.50;4963356;28;20574;-65
2021/12/26 06:14:46;;;;;;;14.43;8.97;;;;;;;4.70;74.08;99766.84;4961462;28;20211;-65
2021/12/26 06:17:14;;;;;;;16.13;8.93;;;;;;;4.82;74.34;99768.44;4961455;28;20340;-65
2021/12/26 06:19:41;;;;;;;13.40;7.83;;;;;;;4.56;75.03;99764.53;4964295;28;20680;-65
2021/12/26 06:22:09;;;;;;;15.87;8.73;;;;;;;4.58;74.89;99765.22;4962456;28;21372;-65
2021/12/26 06:24:37;;;;;;;17.13;8.87;;;;;;;4.70;74.98;99761.56;4961856;28;20237;-65
2021/12/26 06:27:05;;;;;;;16.53;9.57;;;;;;;4.89;74.45;99760.88;4961559;28;20246;-65
2021/12/26 06:29:35;;;;;;;15.80;9.00;;;;;;;4.69;75.24;99764.31;4964030;28;20211;-64
2021/12/26 06:32:03;;;;;;;17.93;10.20;;;;;;;4.51;76.27;99767.53;4962869;28;20675;-64
2021/12/26 06:34:31;;;;;;;16.37;9.37;;;;;;;4.70;75.82;99766.84;4968094;28;20313;-65
2021/12/26 06:36:59;;;;;;;15.80;8.60;;;;;;;4.75;75.66;99761.22;4970656;28;20583;-65
2021/12/26 06:39:27;;;;;;;14.97;9.00;;;;;;;4.74;76.13;99763.00;4965292;28;20229;-65
2021/12/26 06:41:54;;;;;;;19.13;9.73;;;;;;;4.75;76.02;99767.25;4963748;28;22378;-65
2021/12/26 06:44:23;;;;;;;18.77;10.33;;;;;;;4.76;76.03;99765.47;4972641;28;20213;-65
2021/12/26 06:46:52;;;;;;;20.17;10.03;;;;;;;4.84;75.99;99768.28;4968191;28;20774;-65
2021/12/26 06:49:19;;;;;;;17.07;9.93;;;;;;;4.82;75.76;99765.81;4961511;28;20220;-65
2021/12/26 06:51:48;;;;;;;18.63;10.47;;;;;;;4.86;75.77;99761.97;4967169;28;20219;-65
2021/12/26 06:54:15;;;;;;;16.93;10.13;;;;;;;4.86;75.99;99766.38;4961738;28;20254;-65
2021/12/26 06:56:44;;;;;;;18.57;9.43;;;;;;;4.74;75.80;99763.00;4968049;28;20237;-65
2021/12/26 06:59:12;;;;;;;16.30;9.70;;;;;;;4.78;75.89;99753.88;4965875;28;20322;-66
2021/12/26 07:01:39;;;;;;;16.37;9.60;;;;;;;4.70;76.20;99763.38;4967115;28;20258;-65
2021/12/26 07:04:09;;;;;;;17.87;10.17;;;;;;;4.90;75.44;99758.13;4971364;28;20671;-65
2021/12/26 07:06:38;;;;;;;15.80;9.43;;;;;;;4.77;75.42;99761.88;4968112;28;20207;-66
2021/12/26 07:09:06;;;;;;;18.27;10.30;;;;;;;4.72;75.70;99769.34;4968862;28;20210;-66
2021/12/26 07:11:34;;;;;;;17.43;9.90;;;;;;;4.68;76.34;99770.53;4964120;28;20220;-66
2021/12/26 07:14:02;;;;;;;17.27;9.60;;;;;;;4.60;76.79;99772.97;4962899;28;20308;-65
2021/12/26 07:16:29;;;;;;;18.03;9.40;;;;;;;4.76;76.13;99771.56;4966157;28;20318;-65
2021/12/26 07:18:57;;;;;;;22.60;10.83;;;;;;;4.88;75.57;99769.72;4968497;28;20624;-65
2021/12/26 07:21:26;;;;;;;19.10;9.70;;;;;;;4.50;77.64;99775.50;4963304;28;20632;-66
2021/12/26 07:23:54;;;;;;;18.13;10.07;;;;;;;4.67;77.38;99782.84;4960292;28;20242;-66
2021/12/26 07:26:23;;;;;;;19.10;10.50;;;;;;;4.71;76.63;99779.00;4970560;28;20241;-65
2021/12/26 07:28:51;;;;;;;17.13;9.53;;;;;;;4.65;77.42;99779.53;4965884;28;20301;-66
2021/12/26 07:31:19;;;;;;;18.30;10.47;;;;;;;4.39;78.21;99781.66;4971189;28;20688;-65
2021/12/26 07:33:47;;;;;;;17.10;9.83;;;;;;;4.56;77.94;99775.03;4967991;28;20600;-65
2021/12/26 07:36:15;;;;;;;19.73;10.33;;;;;;;4.65;77.46;99779.53;4968556;28;20242;-67
2021/12/26 07:38:44;;;;;;;19.47;10.57;;;;;;;4.74;76.74;99781.38;4967776;28;20478;-66
2021/12/26 07:41:21;;;;;;;19.47;10.40;;;;;;;4.97;76.04;99786.50;4968954;28;20598;-66
2021/12/26 07:43:49;;;;;;;17.40;10.03;;;;;;;4.82;76.34;99786.84;4959711;28;20217;-67
2021/12/26 07:46:17;;;;;;;17.77;9.87;;;;;;;4.77;76.67;99785.53;4969617;28;20217;-67
2021/12/26 07:48:45;;;;;;;20.83;11.13;;;;;;;4.71;76.64;99793.94;4970710;28;20573;-66
2021/12/26 07:51:13;;;;;;;21.43;10.77;;;;;;;4.53;77.32;99793.66;4967192;28;20654;-66
2021/12/26 07:53:41;;;;;;;19.20;10.37;;;;;;;4.63;76.78;99791.94;4968005;28;20579;-65
2021/12/26 07:56:10;;;;;;;19.90;10.87;;;;;;;4.75;76.52;99796.16;4966279;28;20214;-63
2021/12/26 07:58:38;;;;;;;20.87;10.53;;;;;;;4.79;76.59;99797.59;4964863;28;20262;-64
2021/12/26 08:01:06;;;;;;;19.07;10.30;;;;;;;4.73;76.52;99795.47;4960372;28;20260;-64
2021/12/26 08:03:34;;;;;;;20.30;10.87;;;;;;;4.85;76.57;99802.31;4963542;28;20379;-62
2021/12/26 08:06:02;;;;;;;19.17;11.60;;;;;;;4.91;76.37;99806.25;4962254;28;20735;-63
2021/12/26 08:08:30;;;;;;;18.93;10.60;;;;;;;4.98;75.87;99801.31;4963321;28;20250;-62
2021/12/26 08:10:58;;;;;;;17.53;9.83;;;;;;;4.91;75.95;99796.56;4962828;28;20301;-63
2021/12/26 08:13:30;;;;;;;22.83;11.70;;;;;;;4.97;75.96;99794.38;4962881;28;20222;-63
2021/12/26 08:15:57;;;;;;;20.07;11.60;;;;;;;4.84;75.78;99795.41;4962862;28;20285;-63
2021/12/26 08:18:25;;;;;;;19.23;11.10;;;;;;;4.70;76.53;99802.75;4969291;28;20230;-63
2021/12/26 08:20:53;;;;;;;20.87;11.23;;;;;;;4.90;76.31;99805.41;4960910;28;20218;-63
2021/12/26 08:23:21;;;;;;;17.43;10.40;;;;;;;4.95;76.37;99796.28;4964757;28;20312;-64
2021/12/26 08:25:49;;;;;;;20.13;10.97;;;;;;;4.91;75.95;99801.00;4966177;28;20245;-62
2021/12/26 08:28:17;;;;;;;21.20;10.97;;;;;;;5.07;75.88;99800.53;4963580;28;20241;-63
2021/12/26 08:30:46;;;;;;;16.90;9.83;;;;;;;5.11;75.14;99796.66;4966313;28;20216;-64
2021/12/26 08:33:15;;;;;;;17.93;9.77;;;;;;;5.08;75.69;99797.78;4966528;28;20220;-63
2021/12/26 08:35:45;;;;;;;18.23;9.97;;;;;;;4.78;76.52;99790.66;4965549;28;20225;-62
2021/12/26 08:38:14;;;;;;;16.67;9.53;;;;;;;4.92;75.71;99797.41;4966261;28;20406;-63
2021/12/26 08:40:42;;;;;;;21.47;10.77;;;;;;;4.90;76.60;99799.31;4963879;28;20229;-64
2021/12/26 08:43:09;;;;;;;17.97;9.50;;;;;;;4.87;76.88;99796.94;4963390;28;20306;-63
2021/12/26 08:45:38;;;;;;;16.63;10.10;;;;;;;4.78;77.02;99806.41;4967236;28;20757;-63
2021/12/26 08:48:07;;;;;;;17.10;9.67;;;;;;;4.92;76.64;99808.72;4964496;28;20764;-62
2021/12/26 08:50:41;;;;;;;18.87;9.77;;;;;;;4.93;76.44;99805.13;4968369;28;20220;-63
2021/12/26 08:53:09;;;;;;;23.43;10.27;;;;;;;5.05;76.28;99802.44;4964642;28;20238;-62
2021/12/26 08:55:37;;;;;;;18.50;11.03;;;;;;;5.00;76.60;99802.00;4965352;28;20210;-63
2021/12/26 08:58:06;;;;;;;18.67;9.93;;;;;;;5.08;76.72;99805.66;4966237;28;20879;-63
2021/12/26 09:00:36;;;;;;;18.63;9.60;;;;;;;5.00;77.53;99805.47;4965366;28;20281;-63
2021/12/26 09:03:04;;;;;;;17.27;9.63;;;;;;;5.00;76.99;99810.72;4963578;28;20222;-63
2021/12/26 09:05:33;;;;;;;19.67;10.90;;;;;;;5.11;76.67;99812.44;4971620;28;20238;-62
2021/12/26 09:08:02;;;;;;;17.00;9.83;;;;;;;5.14;76.75;99809.56;4966148;28;20207;-62
2021/12/26 09:10:30;;;;;;;17.47;10.10;;;;;;;5.21;76.33;99814.16;4964534;28;20215;-63
2021/12/26 09:12:58;;;;;;;17.07;9.97;;;;;;;5.13;76.50;99815.78;4962814;28;20253;-63
2021/12/26 09:15:26;;;;;;;17.97;10.27;;;;;;;5.02;77.36;99816.66;4962072;28;20263;-63
2021/12/26 09:17:54;;;;;;;17.10;9.23;;;;;;;5.07;76.41;99821.56;4965734;28;20338;-63
2021/12/26 09:20:21;;;;;;;19.03;9.87;;;;;;;5.06;76.95;99820.72;4964307;28;20215;-64
2021/12/26 09:22:51;;;;;;;18.60;10.03;;;;;;;5.21;76.37;99823.84;4963262;28;20222;-63
2021/12/26 09:25:19;;;;;;;19.87;11.00;;;;;;;5.14;76.85;99822.69;4968426;28;20235;-63
2021/12/26 09:27:46;;;;;;;15.90;9.83;;;;;;;5.15;76.99;99827.84;4974502;28;20638;-62
2021/12/26 09:30:15;;;;;;;17.30;9.80;;;;;;;5.12;77.70;99827.25;4963819;28;20593;-62
2021/12/26 09:32:44;;;;;;;21.70;10.77;;;;;;;5.09;77.56;99820.47;4963546;28;20395;-62
2021/12/26 09:35:12;;;;;;;19.90;10.63;;;;;;;4.96;77.38;99832.94;4965167;28;20302;-63
2021/12/26 09:37:40;;;;;;;15.87;9.73;;;;;;;5.09;77.65;99825.72;4964468;28;20238;-64
2021/12/26 09:40:11;;;;;;;16.50;9.60;;;;;;;5.03;78.23;99830.63;4968042;28;20648;-63
2021/12/26 09:42:39;;;;;;;20.47;10.57;;;;;;;5.21;77.86;99826.47;4961381;28;20225;-63
2021/12/26 09:45:08;;;;;;;19.30;10.53;;;;;;;5.19;77.53;99831.84;4963440;28;20207;-63
2021/12/26 09:47:37;;;;;;;18.37;9.40;;;;;;;5.00;77.97;99825.66;4965823;28;20219;-63
2021/12/26 09:50:06;;;;;;;21.00;11.40;;;;;;;5.26;77.08;99827.75;4965289;28;20210;-62
2021/12/26 09:52:34;;;;;;;18.87;10.60;;;;;;;5.23;77.49;99819.28;4963648;28;20215;-63
2021/12/26 09:55:02;;;;;;;20.27;10.73;;;;;;;5.27;77.51;99823.34;4964458;28;20660;-63
2021/12/26 09:57:31;;;;;;;17.60;10.63;;;;;;;4.91;78.49;99820.22;4963093;28;20318;-64
2021/12/26 09:59:59;;;;;;;18.60;10.80;;;;;;;5.23;77.80;99821.94;4964964;28;20373;-64
2021/12/26 10:02:30;;;;;;;18.83;10.33;;;;;;;5.32;76.67;99815.06;4962339;28;20215;-63
2021/12/26 10:05:00;;;;;;;19.70;10.83;;;;;;;5.08;77.51;99815.34;4965221;28;20299;-62
2021/12/26 10:07:27;;;;;;;21.50;10.83;;;;;;;5.20;77.58;99811.66;4964308;28;20738;-62
2021/12/26 10:09:55;;;;;;;19.83;10.53;;;;;;;5.26;76.92;99795.38;4968464;28;20215;-64
2021/12/26 10:12:24;;;;;;;20.30;11.03;;;;;;;5.22;77.24;99807.13;4963116;28;20229;-64
2021/12/26 10:14:55;;;;;;;18.57;10.33;;;;;;;5.29;77.12;99800.38;4963579;28;20307;-63
2021/12/26 10:17:26;;;;;;;18.87;10.43;;;;;;;5.30;77.66;99802.03;4966747;28;20284;-62
2021/12/26 10:20:03;;;;;;;20.80;11.43;;;;;;;5.43;77.54;99792.16;4964186;28;20226;-63
2021/12/26 10:22:31;;;;;;;18.93;10.83;;;;;;;5.46;77.38;99791.88;4962415;28;20494;-63
2021/12/26 10:24:59;;;;;;;18.53;10.10;;;;;;;5.48;77.11;99784.69;4966766;28;20331;-62
2021/12/26 10:27:31;;;;;;;18.20;9.87;;;;;;;5.40;76.88;99781.88;4963159;28;20242;-63
2021/12/26 10:30:01;;;;;;;18.63;11.57;;;;;;;5.41;76.47;99773.03;4962793;28;20214;-61
2021/12/26 10:32:31;;;;;;;19.00;10.10;;;;;;;5.42;76.79;99774.69;4966442;28;20211;-62
2021/12/26 10:35:02;;;;;;;20.53;10.83;;;;;;;5.52;76.41;99780.84;4974930;28;20230;-62
2021/12/26 10:37:33;;;;;;;18.83;10.33;;;;;;;5.41;76.83;99775.66;4964790;28;20664;-64
2021/12/26 10:40:04;;;;;;;18.10;10.73;;;;;;;5.37;76.63;99776.88;4966677;28;20246;-64
2021/12/26 10:42:34;;;;;;;20.97;11.07;;;;;;;5.29;77.62;99781.97;4965894;28;20231;-63
2021/12/26 10:45:06;;;;;;;20.97;10.80;;;;;;;5.45;77.40;99779.72;4965608;28;20590;-62
2021/12/26 10:47:36;;;;;;;19.23;10.63;;;;;;;5.51;77.50;99783.59;4968664;28;20294;-63
2021/12/26 10:50:06;;;;;;;20.30;10.57;;;;;;;5.49;77.56;99791.63;4967024;28;20223;-63
2021/12/26 10:52:37;;;;;;;20.47;10.43;;;;;;;5.50;77.10;99782.75;4966460;28;20219;-63
2021/12/26 10:55:08;;;;;;;20.60;10.57;;;;;;;5.52;77.01;99783.47;4967031;28;20297;-63
2021/12/26 10:57:37;;;;;;;19.33;9.97;;;;;;;5.49;77.19;99775.84;4978338;28;20690;-63
2021/12/26 11:00:15;;;;;;;22.30;11.27;;;;;;;5.51;77.04;99775.72;4968562;28;20739;-63
2021/12/26 11:02:45;;;;;;;19.00;10.57;;;;;;;5.51;77.06;99779.16;4965975;28;20736;-63
2021/12/26 11:05:16;;;;;;;19.67;10.63;;;;;;;5.48;77.02;99776.78;4969566;28;20213;-63
2021/12/26 11:07:50;;;;;;;19.33;10.17;;;;;;;5.43;77.56;99771.13;4961430;28;20269;-62
2021/12/26 11:10:22;;;;;;;18.53;10.67;;;;;;;5.52;77.64;99772.13;4967172;28;20496;-64
2021/12/26 11:12:52;;;;;;;20.27;11.90;;;;;;;5.47;77.71;99764.59;4971018;28;20266;-63
2021/12/26 11:15:23;;;;;;;20.47;10.87;;;;;;;5.42;78.14;99766.81;4958571;28;20218;-63
2021/12/26 11:17:54;;;;;;;23.63;11.30;;;;;;;5.49;78.42;99767.13;4968477;28;20265;-62
2021/12/26 11:20:41;;;;;;;20.33;11.63;;;;;;;5.51;78.34;99766.03;4967774;28;20314;-63
2021/12/26 11:23:11;;;;;;;19.67;11.37;;;;;;;5.52;78.23;99759.81;4965492;28;20305;-62
2021/12/26 11:25:43;;;;;;;21.77;10.33;;;;;;;5.54;78.00;99754.41;4976837;28;20281;-62
2021/12/26 11:28:12;;;;;;;18.70;10.63;;;;;;;5.60;77.84;99757.34;4968059;28;20578;-63
2021/12/26 11:30:43;;;;;;;20.97;10.87;;;;;;;5.61;77.82;99751.13;4968718;28;20306;-64
2021/12/26 11:33:13;;;;;;;22.00;11.23;;;;;;;5.55;78.05;99759.50;4975681;28;20206;-64
2021/12/26 11:35:41;;;;;;;18.37;10.57;;;;;;;5.58;78.05;99756.63;4969634;28;20211;-67
2021/12/26 11:38:12;;;;;;;20.43;11.17;;;;;;;5.51;78.32;99755.50;4962674;28;20534;-64
2021/12/26 11:40:41;;;;;;;20.73;11.07;;;;;;;5.56;77.68;99755.91;4971635;28;20322;-64